Time;durP1;ratioP1;P1;durP2;ratioP2;P2;SDS_P1;SDS_P2;PMS_P1;PMS_P2;Temp;Humidity;BMP_temperature;BMP_pressure;BME280_temperature;BME280_humidity;BME280_pressure;Samples;Min_cycle;Max_cycle;Signal;HPM_P1;HPM_P2
2023/07/08 00:00:16;;;;;;;9.20;6.27;;;18.50;1.00;;;;;;4995457;28;20432;-81
2023/07/08 00:06:04;;;;;;;10.13;7.20;;;18.40;1.00;;;;;;4995060;28;20496;-74
2023/07/08 00:08:29;;;;;;;9.17;5.73;;;18.40;1.00;;;;;;4991475;28;20435;-74
2023/07/08 00:10:55;;;;;;;10.50;6.20;;;18.40;1.00;;;;;;4995865;28;20205;-73
2023/07/08 00:13:21;;;;;;;10.90;6.10;;;18.40;1.00;;;;;;4993024;28;20185;-73
2023/07/08 00:15:50;;;;;;;10.43;7.10;;;18.40;1.00;;;;;;4994744;28;20523;-73
2023/07/08 00:18:17;;;;;;;15.60;6.57;;;18.40;1.00;;;;;;4998403;28;20209;-73
2023/07/08 00:21:15;;;;;;;16.87;6.67;;;18.40;1.00;;;;;;4993823;28;20436;-73
2023/07/08 00:28:01;;;;;;;11.77;6.87;;;18.40;1.00;;;;;;5006055;28;20467;-81
2023/07/08 00:38:01;;;;;;;11.40;6.30;;;18.40;1.00;;;;;;4992420;28;20430;-81
2023/07/08 00:44:43;;;;;;;11.60;6.73;;;18.30;1.00;;;;;;5012533;28;20751;-81
2023/07/08 00:47:50;;;;;;;13.00;6.43;;;18.30;1.00;;;;;;4997593;28;20411;-80
2023/07/08 00:51:07;;;;;;;14.23;6.80;;;18.30;1.00;;;;;;4991319;28;20443;-81
2023/07/08 00:53:36;;;;;;;13.70;7.63;;;18.30;1.00;;;;;;4991223;28;20851;-73
2023/07/08 00:56:43;;;;;;;15.33;5.90;;;18.30;1.00;;;;;;4996292;28;20426;-73
2023/07/08 00:59:17;;;;;;;15.97;6.73;;;18.30;1.00;;;;;;4989348;28;20510;-73
2023/07/08 01:01:44;;;;;;;8.07;5.90;;;18.20;1.00;;;;;;4989847;28;20515;-73
2023/07/08 01:04:24;;;;;;;10.37;6.23;;;18.20;1.00;;;;;;4989210;28;20466;-73
2023/07/08 01:06:57;;;;;;;9.63;6.17;;;18.20;1.00;;;;;;4979195;28;20418;-73
2023/07/08 01:09:46;;;;;;;18.23;6.50;;;18.30;1.00;;;;;;4991436;28;20901;-73
2023/07/08 01:12:17;;;;;;;8.77;6.43;;;18.30;1.00;;;;;;4990887;28;20898;-74
2023/07/08 01:14:44;;;;;;;11.37;6.00;;;18.20;1.00;;;;;;4990656;28;20490;-73
2023/07/08 01:17:13;;;;;;;8.13;5.93;;;18.30;1.00;;;;;;4991989;28;20474;-73
2023/07/08 01:19:44;;;;;;;8.90;6.30;;;18.30;1.00;;;;;;4987287;28;20531;-73
2023/07/08 01:22:14;;;;;;;12.50;6.53;;;18.30;1.00;;;;;;4988283;28;20406;-73
2023/07/08 01:24:43;;;;;;;13.23;6.97;;;18.30;1.00;;;;;;4989978;28;20463;-73
2023/07/08 01:27:13;;;;;;;12.13;6.53;;;18.30;1.00;;;;;;4990816;28;20439;-73
2023/07/08 01:29:39;;;;;;;12.40;6.60;;;18.40;1.00;;;;;;4991012;28;20406;-73
2023/07/08 01:32:05;;;;;;;18.23;6.73;;;18.40;1.00;;;;;;4991198;28;20574;-73
2023/07/08 01:34:37;;;;;;;10.40;6.47;;;18.30;1.00;;;;;;4994332;28;20188;-73
2023/07/08 01:37:06;;;;;;;12.97;6.80;;;18.30;1.00;;;;;;4994325;28;21077;-73
2023/07/08 01:39:32;;;;;;;15.97;6.87;;;18.40;1.00;;;;;;4993765;28;20440;-73
2023/07/08 01:41:59;;;;;;;12.43;6.80;;;18.40;1.00;;;;;;4994453;28;20432;-73
2023/07/08 01:44:35;;;;;;;12.67;6.90;;;18.40;1.00;;;;;;4992890;28;20471;-73
2023/07/08 01:47:08;;;;;;;9.13;6.50;;;18.40;1.00;;;;;;4993086;28;20463;-73
2023/07/08 01:49:37;;;;;;;9.43;6.33;;;18.40;1.00;;;;;;4993834;28;20454;-74
2023/07/08 01:52:03;;;;;;;10.10;6.67;;;18.40;1.00;;;;;;4993412;28;20861;-73
2023/07/08 01:54:29;;;;;;;11.43;6.83;;;18.40;1.00;;;;;;4989730;28;20420;-74
2023/07/08 01:56:56;;;;;;;13.30;6.30;;;18.40;1.00;;;;;;5003471;28;20469;-73
2023/07/08 01:59:22;;;;;;;11.40;6.80;;;18.40;1.00;;;;;;4992600;28;20205;-74
2023/07/08 02:01:49;;;;;;;10.80;6.50;;;18.40;1.00;;;;;;4997313;28;20436;-73
2023/07/08 02:04:24;;;;;;;11.43;6.07;;;18.40;1.00;;;;;;4996994;28;20647;-73
2023/07/08 02:10:41;;;;;;;18.77;6.43;;;18.30;1.00;;;;;;5000556;28;20454;-80
2023/07/08 02:16:29;;;;;;;12.63;6.87;;;18.30;1.00;;;;;;5006629;28;20453;-81
2023/07/08 02:22:16;;;;;;;11.23;6.90;;;18.20;1.00;;;;;;4993161;28;20181;-80
2023/07/08 02:28:44;;;;;;;14.50;7.90;;;18.10;1.00;;;;;;4996923;28;20203;-80
2023/07/08 02:34:31;;;;;;;9.10;6.23;;;18.00;1.00;;;;;;5008196;28;20390;-80
2023/07/08 02:37:08;;;;;;;10.87;5.73;;;17.90;1.00;;;;;;4996893;28;20403;-81
2023/07/08 02:39:33;;;;;;;15.50;6.50;;;17.80;1.00;;;;;;4983180;28;20192;-74
2023/07/08 02:42:00;;;;;;;15.57;6.47;;;17.90;1.00;;;;;;5000430;28;20439;-73
2023/07/08 02:44:32;;;;;;;10.73;6.50;;;17.80;1.00;;;;;;5007069;28;20176;-73
2023/07/08 02:47:02;;;;;;;12.70;6.33;;;17.70;1.00;;;;;;5002178;28;20960;-73
2023/07/08 02:49:29;;;;;;;12.77;5.53;;;17.70;1.00;;;;;;4996427;28;20398;-73
2023/07/08 02:55:32;;;;;;;14.17;6.40;;;17.70;1.00;;;;;;5001984;28;20429;-82
2023/07/08 03:01:19;;;;;;;9.53;6.10;;;17.60;1.00;;;;;;5002909;28;20445;-82
2023/07/08 03:07:11;;;;;;;8.50;5.90;;;17.50;1.00;;;;;;4998858;28;20269;-83
2023/07/08 03:09:38;;;;;;;8.63;5.60;;;17.40;1.00;;;;;;4997307;28;20440;-86
2023/07/08 03:12:06;;;;;;;11.70;6.50;;;17.40;1.00;;;;;;4987493;28;20809;-85
2023/07/08 03:14:32;;;;;;;11.37;5.77;;;17.40;1.00;;;;;;4994562;28;20446;-85
2023/07/08 03:16:58;;;;;;;10.07;5.70;;;17.40;1.00;;;;;;4994745;28;20394;-85
2023/07/08 03:19:23;;;;;;;7.83;5.47;;;17.40;1.00;;;;;;4997432;28;20212;-85
2023/07/08 03:21:49;;;;;;;10.00;5.80;;;17.30;1.00;;;;;;5011886;28;20184;-85
2023/07/08 03:24:17;;;;;;;11.83;5.80;;;17.40;1.00;;;;;;4994014;28;20180;-83
2023/07/08 03:37:37;;;;;;;9.80;5.73;;;17.30;1.00;;;;;;4987031;28;20411;-82
2023/07/08 03:43:25;;;;;;;9.63;5.77;;;17.30;1.00;;;;;;4995837;28;20399;-84
2023/07/08 03:46:31;;;;;;;8.93;5.70;;;17.30;1.00;;;;;;5000487;28;20413;-83
2023/07/08 03:49:43;;;;;;;11.93;5.40;;;17.30;1.00;;;;;;5000652;28;20537;-84
2023/07/08 03:58:53;;;;;;;8.00;5.17;;;17.60;1.00;;;;;;4998063;28;20508;-82
2023/07/08 04:04:44;;;;;;;10.50;6.20;;;18.00;1.00;;;;;;5004681;28;20732;-83
2023/07/08 04:08:01;;;;;;;14.83;5.57;;;18.10;1.00;;;;;;4993727;28;20413;-82
2023/07/08 04:10:27;;;;;;;8.70;5.60;;;18.20;1.00;;;;;;4996104;28;20431;-83
2023/07/08 04:16:20;;;;;;;11.60;5.37;;;18.40;1.00;;;;;;4993548;28;20203;-83
2023/07/08 04:22:55;;;;;;;11.20;5.03;;;18.80;1.00;;;;;;4997530;28;20438;-84
2023/07/08 04:28:43;;;;;;;10.27;5.73;;;19.00;1.00;;;;;;4997294;28;20492;-84
2023/07/08 04:31:31;;;;;;;8.50;5.37;;;19.20;1.00;;;;;;5010043;28;20905;-85
2023/07/08 04:34:20;;;;;;;10.17;5.60;;;19.20;1.00;;;;;;4981732;28;20232;-76
2023/07/08 04:37:10;;;;;;;9.00;5.10;;;19.40;1.00;;;;;;5001269;28;20427;-75
2023/07/08 04:47:08;;;;;;;6.80;4.70;;;19.70;1.00;;;;;;5010899;28;20435;-81
2023/07/08 04:50:27;;;;;;;9.07;5.20;;;19.90;1.00;;;;;;4988718;28;20440;-81
2023/07/08 05:06:20;;;;;;;7.70;5.10;;;20.70;1.00;;;;;;4982901;28;20423;-82
2023/07/08 05:09:26;;;;;;;10.20;5.53;;;21.00;1.00;;;;;;4997440;28;20427;-81
2023/07/08 05:15:14;;;;;;;9.17;5.23;;;21.10;1.00;;;;;;4974896;28;20426;-80
2023/07/08 05:28:09;;;;;;;10.13;4.80;;;21.50;1.00;;;;;;4996203;28;20424;-80
2023/07/08 05:30:44;;;;;;;11.40;4.80;;;21.60;1.00;;;;;;5017269;28;20414;-80
2023/07/08 05:33:20;;;;;;;9.10;5.67;;;21.70;1.00;;;;;;5005483;28;20906;-81
2023/07/08 05:39:07;;;;;;;13.37;6.10;;;22.00;1.00;;;;;;4998072;28;20452;-80
2023/07/08 05:44:55;;;;;;;10.90;5.20;;;22.30;1.00;;;;;;4997952;28;20165;-80
2023/07/08 05:54:04;;;;;;;6.63;5.20;;;22.80;1.00;;;;;;5000114;28;20957;-81
2023/07/08 05:56:30;;;;;;;7.30;5.20;;;23.00;1.00;;;;;;5002625;28;20435;-73
2023/07/08 05:58:56;;;;;;;15.13;5.30;;;23.10;1.00;;;;;;5014770;28;20202;-73
2023/07/08 06:01:22;;;;;;;7.77;4.80;;;23.20;1.00;;;;;;5008589;28;20192;-73
2023/07/08 06:03:48;;;;;;;7.93;5.40;;;23.30;1.00;;;;;;4997458;28;20406;-73
2023/07/08 06:06:14;;;;;;;12.43;6.00;;;23.50;1.00;;;;;;5010985;28;20417;-73
2023/07/08 06:08:40;;;;;;;10.10;5.10;;;23.50;1.00;;;;;;5006408;28;20185;-73
2023/07/08 06:11:06;;;;;;;8.10;5.73;;;23.60;1.00;;;;;;5011547;28;20231;-73
2023/07/08 06:13:31;;;;;;;9.27;5.40;;;23.70;1.00;;;;;;5017096;28;20906;-73
2023/07/08 06:15:57;;;;;;;11.87;5.70;;;23.80;1.00;;;;;;5001700;28;20196;-73
2023/07/08 06:18:23;;;;;;;11.43;5.47;;;24.00;1.00;;;;;;5004232;28;20209;-73
2023/07/08 06:20:57;;;;;;;8.37;4.93;;;24.10;1.00;;;;;;5014746;28;20260;-73
2023/07/08 06:23:23;;;;;;;24.37;5.50;;;24.20;1.00;;;;;;5013860;28;20650;-73
2023/07/08 06:25:49;;;;;;;7.17;4.80;;;24.30;1.00;;;;;;5008525;28;20505;-73
2023/07/08 06:28:14;;;;;;;17.57;5.20;;;24.40;1.00;;;;;;4997229;28;20585;-73
2023/07/08 06:30:40;;;;;;;8.80;5.10;;;24.60;1.00;;;;;;4996929;28;20481;-73
2023/07/08 06:33:06;;;;;;;5.00;4.33;;;24.60;1.00;;;;;;5001874;28;20616;-73
2023/07/08 06:35:32;;;;;;;9.00;4.80;;;24.80;1.00;;;;;;5002441;28;20532;-73
2023/07/08 06:37:57;;;;;;;7.00;5.20;;;25.00;1.00;;;;;;5002949;28;20202;-73
2023/07/08 06:43:45;;;;;;;7.30;4.67;;;25.70;1.00;;;;;;5003013;28;20909;-81
2023/07/08 06:56:17;;;;;;;6.00;4.40;;;26.20;1.00;;;;;;4996857;28;20411;-81
2023/07/08 07:02:20;;;;;;;8.43;5.10;;;26.40;1.00;;;;;;4994079;28;20240;-80
2023/07/08 07:08:07;;;;;;;6.57;4.77;;;26.70;1.00;;;;;;4996489;28;20461;-80
2023/07/08 07:10:40;;;;;;;13.00;5.00;;;27.00;1.00;;;;;;5008406;28;20460;-75
2023/07/08 07:13:49;;;;;;;6.03;4.80;;;27.00;1.00;;;;;;4996382;28;20425;-80
2023/07/08 07:19:37;;;;;;;11.07;5.10;;;27.30;1.00;;;;;;4977003;28;20474;-80
2023/07/08 07:25:24;;;;;;;7.23;4.87;;;27.60;1.00;;;;;;4976662;28;20192;-80
2023/07/08 07:28:08;;;;;;;12.00;4.87;;;27.70;1.00;;;;;;5000097;28;20437;-80
2023/07/08 07:33:56;;;;;;;8.50;4.73;;;28.10;1.00;;;;;;4995965;28;20450;-81
2023/07/08 07:43:08;;;;;;;6.87;4.50;;;28.20;1.00;;;;;;4998672;28;20427;-73
2023/07/08 07:45:33;;;;;;;11.53;5.17;;;28.20;1.00;;;;;;5000150;28;20800;-73
2023/07/08 07:47:59;;;;;;;12.83;4.70;;;28.20;1.00;;;;;;4995738;28;20539;-73
2023/07/08 07:50:25;;;;;;;6.40;4.30;;;28.10;1.00;;;;;;4997453;28;20577;-73
2023/07/08 07:52:50;;;;;;;12.40;5.17;;;28.20;1.00;;;;;;4994608;28;20196;-73
2023/07/08 07:55:16;;;;;;;9.03;4.70;;;28.20;1.00;;;;;;4990851;28;20532;-73
2023/07/08 07:57:45;;;;;;;8.23;4.63;;;28.30;1.00;;;;;;5006198;28;20200;-73
2023/07/08 08:00:13;;;;;;;7.23;4.73;;;28.30;1.00;;;;;;4996328;28;20878;-73
2023/07/08 08:02:44;;;;;;;8.93;4.27;;;28.20;1.00;;;;;;5007009;28;20418;-73
2023/07/08 08:05:10;;;;;;;11.47;4.60;;;28.10;1.00;;;;;;5002556;28;20416;-73
2023/07/08 08:07:36;;;;;;;9.57;5.00;;;28.00;1.00;;;;;;4998305;28;20913;-73
2023/07/08 08:10:03;;;;;;;11.17;4.90;;;28.00;1.00;;;;;;4998730;28;20232;-73
2023/07/08 08:12:50;;;;;;;6.30;4.50;;;28.20;1.00;;;;;;5008442;28;20453;-80
2023/07/08 08:18:38;;;;;;;6.63;4.80;;;28.40;1.00;;;;;;4983178;28;20550;-80
2023/07/08 08:24:26;;;;;;;6.13;4.70;;;28.60;1.00;;;;;;4978738;28;20165;-82
2023/07/08 08:30:13;;;;;;;7.43;5.27;;;28.70;1.00;;;;;;4975309;28;20174;-80
2023/07/08 08:36:00;;;;;;;8.60;4.90;;;28.70;1.00;;;;;;5014313;28;20170;-80
2023/07/08 08:41:52;;;;;;;7.23;5.13;;;28.70;1.00;;;;;;4994823;28;20501;-73
2023/07/08 08:44:24;;;;;;;7.27;4.77;;;28.80;1.00;;;;;;4994502;28;20415;-73
2023/07/08 08:47:01;;;;;;;11.70;5.00;;;28.70;1.00;;;;;;4994461;28;20473;-73
2023/07/08 08:49:32;;;;;;;12.33;4.83;;;28.70;1.00;;;;;;4992895;28;20834;-73
2023/07/08 08:51:58;;;;;;;9.03;5.30;;;28.80;1.00;;;;;;4994238;28;20422;-73
2023/07/08 08:54:25;;;;;;;12.40;5.70;;;28.90;1.00;;;;;;4994629;28;20418;-73
2023/07/08 08:57:01;;;;;;;11.33;5.13;;;28.90;1.00;;;;;;4995094;28;20428;-73
2023/07/08 08:59:43;;;;;;;7.60;5.53;;;28.80;1.00;;;;;;4994765;28;20458;-73
2023/07/08 09:02:39;;;;;;;9.93;5.40;;;29.00;1.00;;;;;;4994355;28;20915;-73
2023/07/08 09:05:12;;;;;;;8.50;5.17;;;29.40;1.00;;;;;;4993385;28;20435;-73
2023/07/08 09:08:10;;;;;;;9.97;5.70;;;29.70;1.00;;;;;;5006383;28;20418;-73
2023/07/08 09:10:47;;;;;;;9.23;5.40;;;30.00;1.00;;;;;;4995787;28;20417;-73
2023/07/08 09:13:21;;;;;;;10.43;5.40;;;30.20;1.00;;;;;;5012304;28;20772;-73
2023/07/08 09:15:48;;;;;;;6.90;5.40;;;30.40;1.00;;;;;;4990364;28;20476;-73
2023/07/08 09:18:28;;;;;;;25.77;5.47;;;30.60;1.00;;;;;;4993549;28;20500;-73
2023/07/08 09:20:56;;;;;;;12.10;6.30;;;30.80;1.00;;;;;;4994252;28;20505;-73
2023/07/08 09:23:28;;;;;;;6.60;5.40;;;30.80;1.00;;;;;;4993804;28;20504;-73
2023/07/08 09:26:11;;;;;;;8.20;5.13;;;30.80;1.00;;;;;;4994300;28;20413;-74
2023/07/08 09:28:39;;;;;;;9.37;5.80;;;30.50;1.00;;;;;;4997450;28;20495;-73
2023/07/08 09:31:07;;;;;;;7.70;5.40;;;30.60;1.00;;;;;;4981567;28;20421;-73
2023/07/08 09:33:36;;;;;;;7.70;6.00;;;30.70;1.00;;;;;;4994129;28;20413;-74
2023/07/08 09:36:21;;;;;;;10.37;5.10;;;30.90;1.00;;;;;;4987175;28;20445;-73
2023/07/08 09:38:48;;;;;;;10.60;5.37;;;31.30;1.00;;;;;;4996282;28;20521;-74
2023/07/08 09:41:36;;;;;;;7.70;5.43;;;31.50;1.00;;;;;;4992004;28;20959;-74
2023/07/08 09:44:26;;;;;;;8.63;4.87;;;31.70;1.00;;;;;;4993186;28;20412;-74
2023/07/08 09:46:53;;;;;;;6.57;5.07;;;31.80;1.00;;;;;;4993872;28;20404;-73
2023/07/08 09:49:33;;;;;;;12.03;5.33;;;31.80;1.00;;;;;;4993414;28;20433;-73
2023/07/08 09:51:59;;;;;;;10.30;5.50;;;31.70;1.00;;;;;;4996710;28;20447;-74
2023/07/08 09:54:26;;;;;;;9.53;5.80;;;31.80;1.00;;;;;;4993785;28;20749;-73
2023/07/08 09:56:57;;;;;;;9.23;5.33;;;31.80;1.00;;;;;;4996620;28;20387;-74
2023/07/08 10:09:31;;;;;;;14.80;5.93;;;32.30;1.00;;;;;;4998198;28;20399;-81
2023/07/08 10:12:21;;;;;;;19.90;5.90;;;32.40;1.00;;;;;;5005333;28;20443;-81
2023/07/08 10:25:10;;;;;;;10.17;5.73;;;32.80;1.00;;;;;;4992134;28;20422;-81
2023/07/08 10:27:52;;;;;;;8.50;5.10;;;32.80;1.00;;;;;;4991056;28;20448;-74
2023/07/08 10:30:34;;;;;;;10.70;6.00;;;32.70;1.00;;;;;;4997169;28;20416;-73
2023/07/08 10:33:21;;;;;;;12.03;5.40;;;32.60;1.00;;;;;;4997163;28;20423;-73
2023/07/08 10:36:31;;;;;;;8.70;5.63;;;32.60;1.00;;;;;;4997507;28;20504;-73
2023/07/08 10:39:12;;;;;;;9.67;5.30;;;32.60;1.00;;;;;;4993873;28;20998;-73
2023/07/08 10:42:05;;;;;;;6.00;5.20;;;32.70;1.00;;;;;;4994809;28;20429;-73
2023/07/08 10:44:44;;;;;;;10.10;4.80;;;32.80;1.00;;;;;;4995110;28;20493;-82
2023/07/08 10:50:33;;;;;;;6.07;4.80;;;32.90;1.00;;;;;;4994793;28;20962;-81
2023/07/08 11:00:18;;;;;;;7.37;5.53;;;32.80;1.00;;;;;;4988371;28;20927;-73
2023/07/08 11:03:08;;;;;;;8.97;5.00;;;32.90;1.00;;;;;;4986528;28;21010;-73
2023/07/08 11:05:52;;;;;;;9.90;5.57;;;33.10;1.00;;;;;;4989913;28;20918;-73
2023/07/08 11:08:25;;;;;;;6.60;5.00;;;33.10;1.00;;;;;;4994041;28;20436;-73
2023/07/08 11:11:06;;;;;;;6.20;4.70;;;33.10;1.00;;;;;;4989604;28;21010;-74
2023/07/08 11:13:37;;;;;;;5.73;4.67;;;33.20;1.00;;;;;;4984510;28;20530;-73
2023/07/08 11:16:10;;;;;;;6.90;4.67;;;33.30;1.00;;;;;;5003478;28;20426;-73
2023/07/08 11:18:48;;;;;;;8.53;4.83;;;33.20;1.00;;;;;;4996021;28;20928;-73
2023/07/08 11:21:27;;;;;;;11.23;4.70;;;33.10;1.00;;;;;;5008028;28;20972;-73
2023/07/08 11:24:07;;;;;;;6.00;4.43;;;33.00;1.00;;;;;;5005678;28;20908;-74
2023/07/08 11:26:56;;;;;;;7.23;4.87;;;33.10;1.00;;;;;;4997888;28;20428;-74
2023/07/08 11:29:36;;;;;;;4.93;3.93;;;33.10;1.00;;;;;;5001320;28;20437;-73
2023/07/08 11:32:05;;;;;;;6.60;4.40;;;33.20;1.00;;;;;;4997928;28;20421;-73
2023/07/08 11:34:33;;;;;;;6.70;4.43;;;33.30;1.00;;;;;;5001943;28;20424;-73
2023/07/08 11:40:23;;;;;;;7.67;5.00;;;33.50;1.00;;;;;;4996471;28;20400;-91
2023/07/08 11:43:07;;;;;;;9.97;5.50;;;33.60;1.00;;;;;;4991513;28;20428;-88
2023/07/08 11:45:44;;;;;;;7.50;4.87;;;;;;;;;;4994266;28;20433;-85
2023/07/08 11:51:37;;;;;;;7.97;4.57;;;33.90;1.00;;;;;;4976350;28;20401;-82
2023/07/08 11:57:52;;;;;;;11.70;4.43;;;34.10;1.00;;;;;;4991642;28;20821;-84
2023/07/08 12:03:49;;;;;;;8.83;4.93;;;34.00;1.00;;;;;;5002743;28;20403;-87
2023/07/08 12:09:39;;;;;;;5.73;4.60;;;34.10;1.00;;;;;;4990951;28;20448;-81
2023/07/08 12:22:11;;;;;;;15.23;4.60;;;34.50;1.00;;;;;;4991100;28;20424;-83
2023/07/08 12:27:59;;;;;;;8.90;5.23;;;34.50;1.00;;;;;;4982069;28;20930;-83
2023/07/08 12:30:28;;;;;;;14.90;5.40;;;34.70;1.00;;;;;;5008904;28;20507;-89
2023/07/08 12:37:07;;;;;;;6.50;5.10;;;34.90;1.00;;;;;;4992797;28;20376;-89
2023/07/08 12:43:20;;;;;;;6.57;4.60;;;35.00;1.00;;;;;;5005152;28;20546;-90
2023/07/08 12:46:20;;;;;;;7.23;4.67;;;35.10;1.00;;;;;;5004644;28;20418;-90
2023/07/08 12:56:19;;;;;;;6.43;4.00;;;35.10;1.00;;;;;;5002612;28;20432;-90
2023/07/08 13:02:27;;;;;;;10.20;4.47;;;35.20;1.00;;;;;;4990469;28;20387;-83
2023/07/08 13:09:08;;;;;;;5.73;4.13;;;35.40;1.00;;;;;;4981380;28;20484;-83
2023/07/08 13:14:58;;;;;;;7.97;4.60;;;35.50;1.00;;;;;;4994908;28;20564;-84
2023/07/08 13:17:50;;;;;;;13.13;4.43;;;35.50;1.00;;;;;;4994290;28;20808;-83
2023/07/08 13:23:38;;;;;;;9.60;4.50;;;35.70;1.00;;;;;;4989172;28;20411;-83
2023/07/08 13:26:28;;;;;;;8.97;4.30;;;35.80;1.00;;;;;;4992274;28;20806;-83
2023/07/08 13:32:48;;;;;;;4.33;3.63;;;36.00;1.00;;;;;;5007370;28;20395;-83
2023/07/08 13:35:36;;;;;;;6.70;4.10;;;36.20;1.00;;;;;;5003662;28;20927;-82
2023/07/08 13:41:24;;;;;;;5.23;3.63;;;36.30;1.00;;;;;;4994623;28;20534;-83
2023/07/08 13:50:48;;;;;;;34.27;4.40;;;36.10;1.00;;;;;;5010227;28;20883;-83
2023/07/08 13:53:25;;;;;;;12.90;3.80;;;35.80;1.00;;;;;;4999486;28;20413;-83
2023/07/08 13:59:18;;;;;;;8.37;4.00;;;36.00;1.00;;;;;;4989524;28;20572;-83
2023/07/08 14:08:28;;;;;;;12.77;4.57;;;35.70;1.00;;;;;;4994878;28;20464;-85
2023/07/08 14:11:13;;;;;;;10.03;4.03;;;35.70;1.00;;;;;;4996756;28;20991;-89
2023/07/08 14:13:39;;;;;;;20.50;5.03;;;35.80;1.00;;;;;;5006879;28;20190;-88
2023/07/08 14:16:24;;;;;;;10.00;4.60;;;35.80;1.00;;;;;;4997906;28;20503;-84
2023/07/08 14:18:51;;;;;;;14.37;4.07;;;36.00;1.00;;;;;;4993947;28;20288;-84
2023/07/08 14:21:26;;;;;;;51.47;5.20;;;36.10;1.00;;;;;;5003716;28;20424;-84
2023/07/08 14:23:56;;;;;;;7.30;3.97;;;36.40;1.00;;;;;;5007421;28;20537;-83
2023/07/08 14:26:28;;;;;;;7.07;3.73;;;36.60;1.00;;;;;;5010338;28;20409;-83
2023/07/08 14:28:54;;;;;;;7.47;4.17;;;36.70;1.00;;;;;;4995903;28;20448;-83
2023/07/08 14:31:24;;;;;;;5.37;3.33;;;37.00;1.00;;;;;;5025482;28;20425;-83
2023/07/08 14:33:58;;;;;;;10.33;4.33;;;36.90;1.00;;;;;;4997009;28;20182;-83
2023/07/08 14:36:26;;;;;;;6.50;4.33;;;37.10;1.00;;;;;;5010227;28;20417;-83
2023/07/08 14:42:20;;;;;;;8.23;3.83;;;37.20;1.00;;;;;;5006335;28;20399;-82
2023/07/08 14:44:49;;;;;;;6.07;3.67;;;37.40;1.00;;;;;;4996207;28;20495;-81
2023/07/08 14:47:17;;;;;;;9.77;3.27;;;37.40;1.00;;;;;;4997592;28;20435;-90
2023/07/08 14:49:44;;;;;;;8.30;3.90;;;37.40;1.00;;;;;;4995756;28;20425;-89
2023/07/08 14:52:11;;;;;;;4.87;3.33;;;37.60;1.00;;;;;;4995578;28;20425;-90
2023/07/08 14:54:36;;;;;;;6.50;4.03;;;37.70;1.00;;;;;;4995780;28;20479;-89
2023/07/08 14:57:04;;;;;;;11.60;4.93;;;37.70;1.00;;;;;;4995751;28;20425;-89
2023/07/08 14:59:44;;;;;;;12.23;6.97;;;37.50;1.00;;;;;;4994009;28;20604;-91
2023/07/08 15:02:21;;;;;;;20.23;10.10;;;37.70;1.00;;;;;;5004982;28;20459;-89
2023/07/08 15:05:02;;;;;;;13.10;3.90;;;37.70;1.00;;;;;;4995873;28;20423;-91
2023/07/08 15:07:27;;;;;;;4.90;3.60;;;37.60;1.00;;;;;;4986271;28;20409;-88
2023/07/08 15:09:56;;;;;;;5.00;3.73;;;37.60;1.00;;;;;;4986448;28;20457;-89
2023/07/08 15:12:22;;;;;;;6.37;4.00;;;37.80;1.00;;;;;;4996578;28;20194;-90
2023/07/08 15:15:02;;;;;;;8.13;3.60;;;38.60;1.00;;;;;;4997077;28;20514;-91
2023/07/08 15:17:28;;;;;;;7.13;3.40;;;39.70;1.00;;;;;;4997428;28;20197;-90
2023/07/08 15:19:54;;;;;;;4.23;3.50;;;41.10;1.00;;;;;;5009166;28;20536;-87
2023/07/08 15:26:26;;;;;;;4.17;3.10;;;43.70;1.00;;;;;;4977019;28;20712;-88
2023/07/08 15:29:04;;;;;;;3.83;2.90;;;45.30;1.00;;;;;;4988430;28;20800;-88
2023/07/08 15:31:50;;;;;;;9.10;3.50;;;46.00;1.00;;;;;;4979687;28;20829;-88
2023/07/08 15:37:37;;;;;;;3.47;2.60;;;47.80;1.00;;;;;;5006527;28;20443;-87
2023/07/08 15:40:44;;;;;;;5.90;2.90;;;49.40;1.00;;;;;;4984006;28;20905;-86
2023/07/08 15:46:37;;;;;;;3.37;2.80;;;50.10;1.00;;;;;;5004566;28;20423;-86
2023/07/08 15:52:24;;;;;;;5.53;2.63;;;47.80;1.00;;;;;;5001147;28;20449;-83
2023/07/08 15:55:46;;;;;;;5.80;3.10;;;48.10;1.00;;;;;;5011803;28;20494;-83
2023/07/08 16:18:22;;;;;;;2.70;2.50;;;51.80;1.00;;;;;;4994090;28;20521;-89
2023/07/08 16:24:10;;;;;;;3.37;2.33;;;53.30;1.00;;;;;;5003169;28;20172;-87
2023/07/08 16:26:44;;;;;;;3.63;2.35;;;53.80;1.00;;;;;;5001341;28;20547;-90
2023/07/08 16:33:13;;;;;;;1.90;1.80;;;53.80;1.00;;;;;;4999540;28;20604;-83
2023/07/08 16:36:19;;;;;;;3.43;2.20;;;53.60;1.00;;;;;;5012021;28;20185;-83
2023/07/08 16:42:14;;;;;;;4.60;2.47;;;50.70;1.00;;;;;;4987590;28;20923;-82
2023/07/08 16:48:26;;;;;;;5.57;3.13;;;45.60;1.00;;;;;;4994874;28;20407;-82
2023/07/08 16:57:35;;;;;;;5.63;3.07;;;42.30;1.00;;;;;;4990183;28;20799;-83
2023/07/08 17:06:45;;;;;;;6.63;3.83;;;39.50;1.00;;;;;;4992963;28;20502;-83
2023/07/08 17:13:26;;;;;;;9.07;4.10;;;38.30;1.00;;;;;;4985530;28;20429;-83
2023/07/08 17:19:20;;;;;;;6.00;3.63;;;39.40;1.00;;;;;;5001267;28;20539;-82
2023/07/08 17:31:56;;;;;;;5.67;3.33;;;43.30;1.00;;;;;;5013736;28;20414;-84
2023/07/08 17:41:10;;;;;;;9.63;3.43;;;44.20;1.00;;;;;;5002367;28;20408;-83
2023/07/08 17:47:19;;;;;;;4.63;3.10;;;43.60;1.00;;;;;;4993936;28;20419;-83
2023/07/08 17:49:50;;;;;;;7.27;2.93;;;43.20;1.00;;;;;;4993854;28;20438;-86
2023/07/08 17:53:01;;;;;;;5.87;3.67;;;42.20;1.00;;;;;;4992593;28;20433;-87
2023/07/08 18:02:17;;;;;;;7.57;3.50;;;38.30;1.00;;;;;;5004009;28;20385;-83
2023/07/08 18:04:50;;;;;;;16.97;4.33;;;37.00;1.00;;;;;;4994750;28;20512;-87
2023/07/08 18:10:38;;;;;;;8.17;3.90;;;35.80;1.00;;;;;;5007921;28;20463;-87
2023/07/08 18:16:27;;;;;;;11.80;3.43;;;34.10;1.00;;;;;;4988896;28;20220;-84
2023/07/08 18:19:20;;;;;;;6.63;3.23;;;32.80;1.00;;;;;;4987104;28;20466;-79
2023/07/08 18:21:53;;;;;;;6.53;3.30;;;32.40;1.00;;;;;;5000228;28;20428;-81
2023/07/08 18:24:21;;;;;;;5.63;3.43;;;32.20;1.00;;;;;;4982008;28;20405;-81
2023/07/08 18:33:33;;;;;;;5.00;2.73;;;;;;;;;;4981980;28;20436;-85
2023/07/08 18:36:11;;;;;;;10.40;3.00;;;30.60;1.00;;;;;;4985736;28;20460;-86
2023/07/08 18:38:52;;;;;;;8.30;2.50;;;30.30;1.00;;;;;;5004964;28;20824;-86
2023/07/08 18:44:40;;;;;;;13.23;3.10;;;29.70;1.00;;;;;;4978186;28;20377;-86
2023/07/08 18:51:19;;;;;;;6.33;2.77;;;29.40;1.00;;;;;;5003754;28;20228;-86
2023/07/08 18:54:20;;;;;;;3.23;2.17;;;29.30;1.00;;;;;;5001677;28;20494;-85
2023/07/08 19:00:13;;;;;;;3.53;1.97;;;29.10;1.00;;;;;;4983148;28;20984;-85
2023/07/08 19:02:57;;;;;;;2.57;2.13;;;28.90;1.00;;;;;;5008777;28;20425;-81
2023/07/08 19:09:20;;;;;;;3.60;2.00;;;28.90;1.00;;;;;;4997020;28;20439;-88
2023/07/08 19:15:34;;;;;;;5.70;2.10;;;28.70;1.00;;;;;;4997503;28;20395;-89
2023/07/08 19:18:50;;;;;;;8.53;2.00;;;28.60;1.00;;;;;;5005729;28;20432;-89
2023/07/08 19:21:23;;;;;;;3.30;2.10;;;28.50;1.00;;;;;;4999328;28;20958;-87
2023/07/08 19:24:15;;;;;;;9.67;2.30;;;28.40;1.00;;;;;;4986483;28;20435;-85
2023/07/08 19:27:19;;;;;;;7.40;2.20;;;28.30;1.00;;;;;;4977107;28;20397;-83
2023/07/08 19:36:33;;;;;;;5.63;2.60;;;27.70;1.00;;;;;;4977081;28;20409;-87
2023/07/08 19:39:43;;;;;;;3.63;2.40;;;27.50;1.00;;;;;;4997663;28;20546;-86
2023/07/08 19:42:38;;;;;;;5.17;2.63;;;27.30;1.00;;;;;;5010653;28;20441;-88
2023/07/08 19:45:50;;;;;;;3.37;1.83;;;27.00;1.00;;;;;;4986683;28;20433;-86
2023/07/08 19:48:20;;;;;;;2.97;2.67;;;26.90;1.00;;;;;;4985394;28;20426;-86
2023/07/08 19:50:51;;;;;;;8.63;2.87;;;26.60;1.00;;;;;;5008613;28;20444;-88
2023/07/08 20:06:50;;;;;;;2.67;2.13;;;;;;;;;;4996141;28;20441;-85
2023/07/08 20:09:32;;;;;;;5.23;2.47;;;25.40;1.00;;;;;;4987803;28;20451;-83
2023/07/08 20:12:50;;;;;;;13.03;2.60;;;25.40;1.00;;;;;;4996545;28;20514;-84
2023/07/08 20:15:44;;;;;;;4.83;2.47;;;25.30;1.00;;;;;;5011835;28;20434;-85
2023/07/08 20:18:27;;;;;;;10.70;2.37;;;24.90;1.00;;;;;;5008266;28;20460;-84
2023/07/08 20:24:20;;;;;;;10.27;3.17;;;24.80;1.00;;;;;;5002911;28;20989;-84
2023/07/08 20:26:51;;;;;;;4.07;3.03;;;24.70;1.00;;;;;;5003648;28;20437;-84
2023/07/08 20:29:44;;;;;;;3.47;2.50;;;24.60;1.00;;;;;;5013910;28;20946;-84
2023/07/08 20:32:20;;;;;;;9.03;3.50;;;24.60;1.00;;;;;;5007727;28;20429;-82
2023/07/08 20:34:50;;;;;;;7.63;2.90;;;24.60;1.00;;;;;;4993459;28;20409;-81
2023/07/08 20:37:50;;;;;;;5.80;2.40;;;24.60;1.00;;;;;;4998745;28;20426;-83
2023/07/08 20:40:20;;;;;;;6.00;2.90;;;24.70;1.00;;;;;;4976140;28;20403;-83
2023/07/08 20:43:17;;;;;;;11.90;3.33;;;24.70;1.00;;;;;;4995347;28;20435;-83
2023/07/08 20:45:54;;;;;;;8.47;2.67;;;24.80;1.00;;;;;;5006521;28;20411;-83
2023/07/08 20:51:50;;;;;;;6.07;2.70;;;24.90;1.00;;;;;;5008478;28;20493;-80
2023/07/08 20:54:20;;;;;;;6.93;2.77;;;24.80;1.00;;;;;;5006278;28;20532;-77
2023/07/08 20:56:50;;;;;;;8.13;2.80;;;24.80;1.00;;;;;;5007854;28;20522;-77
2023/07/08 20:59:44;;;;;;;5.50;2.90;;;24.80;1.00;;;;;;5018979;28;20481;-77
2023/07/08 21:02:50;;;;;;;6.67;2.80;;;24.60;1.00;;;;;;4991568;28;20915;-77
2023/07/08 21:05:24;;;;;;;3.20;2.70;;;24.60;1.00;;;;;;4996842;28;20416;-76
2023/07/08 21:07:52;;;;;;;4.80;2.80;;;24.50;1.00;;;;;;4994116;28;20425;-73
2023/07/08 21:10:20;;;;;;;6.30;3.17;;;24.50;1.00;;;;;;4994262;28;20458;-73